Time;durP1;ratioP1;P1;durP2;ratioP2;P2;SDS_P1;SDS_P2;PMS_P1;PMS_P2;Temp;Humidity;BMP_temperature;BMP_pressure;BME280_temperature;BME280_humidity;BME280_pressure;Samples;Min_cycle;Max_cycle;Signal;HPM_P1;HPM_P2
2023/05/29 00:00:39;;;;;;;7.47;2.70;;;;;;;11.64;63.91;100515.69;4212029;28;20331;-64
2023/05/29 00:03:06;;;;;;;8.13;3.10;;;;;;;11.61;63.88;100516.00;4216855;28;20232;-63
2023/05/29 00:05:32;;;;;;;9.03;2.83;;;;;;;11.64;63.93;100521.09;4212909;28;20751;-64
2023/05/29 00:07:59;;;;;;;6.83;2.73;;;;;;;11.65;64.43;100515.53;4209191;28;20291;-66
2023/05/29 00:10:26;;;;;;;7.60;2.63;;;;;;;11.56;64.10;100514.56;4211437;28;20770;-64
2023/05/29 00:12:52;;;;;;;7.67;2.70;;;;;;;11.54;64.43;100513.91;4211783;28;20814;-64
2023/05/29 00:15:19;;;;;;;10.63;2.80;;;;;;;11.56;64.40;100514.56;4225116;28;20583;-65
2023/05/29 00:17:46;;;;;;;8.93;2.80;;;;;;;11.50;64.10;100508.94;4213862;28;20533;-63
2023/05/29 00:20:13;;;;;;;13.50;2.87;;;;;;;11.50;64.71;100506.22;4212927;28;22725;-64
2023/05/29 00:22:39;;;;;;;9.80;2.80;;;;;;;11.46;64.74;100500.25;4206458;28;20235;-65
2023/05/29 00:25:07;;;;;;;7.10;3.10;;;;;;;11.43;65.39;100505.97;4209825;28;20236;-64
2023/05/29 00:27:34;;;;;;;11.33;3.20;;;;;;;11.44;65.14;100504.97;4215236;28;20586;-64
2023/05/29 00:30:02;;;;;;;18.13;3.33;;;;;;;11.48;65.07;100510.94;4210874;28;20252;-65
2023/05/29 00:32:29;;;;;;;10.67;2.80;;;;;;;11.45;65.16;100513.94;4205786;28;22290;-64
2023/05/29 00:34:56;;;;;;;12.90;2.87;;;;;;;11.44;65.06;100502.25;4214032;28;21996;-64
2023/05/29 00:37:22;;;;;;;8.30;2.50;;;;;;;11.45;65.43;100508.50;4215090;28;21879;-63
2023/05/29 00:39:49;;;;;;;7.50;2.93;;;;;;;11.41;65.60;100507.97;4212175;28;21146;-65
2023/05/29 00:42:16;;;;;;;10.63;3.10;;;;;;;11.34;65.87;100505.03;4204346;28;20240;-64
2023/05/29 00:44:42;;;;;;;7.33;2.53;;;;;;;11.32;65.76;100517.84;4217736;28;20279;-63
2023/05/29 00:47:09;;;;;;;7.00;2.60;;;;;;;11.28;65.99;100515.59;4210459;28;20318;-65
2023/05/29 00:49:37;;;;;;;11.67;3.27;;;;;;;11.21;66.34;100520.78;4206890;28;20230;-65
2023/05/29 00:52:06;;;;;;;8.07;2.67;;;;;;;11.17;66.44;100522.06;4210392;28;20452;-63
2023/05/29 00:54:33;;;;;;;6.90;2.47;;;;;;;11.14;66.21;100506.97;4202144;28;20691;-64
2023/05/29 00:57:01;;;;;;;7.83;2.57;;;;;;;11.10;66.48;100514.53;4208532;28;20279;-64
2023/05/29 00:59:30;;;;;;;8.57;3.00;;;;;;;11.08;66.31;100505.69;4218249;28;20258;-66
2023/05/29 01:01:57;;;;;;;11.43;2.97;;;;;;;11.07;66.57;100506.69;4196076;28;20241;-63
2023/05/29 01:04:25;;;;;;;9.17;2.73;;;;;;;11.02;66.52;100509.00;4220272;28;20241;-64
2023/05/29 01:06:52;;;;;;;5.87;2.40;;;;;;;11.02;66.84;100519.84;4232202;28;20236;-63
2023/05/29 01:09:18;;;;;;;7.20;2.80;;;;;;;11.03;66.70;100515.25;4212767;28;21247;-66
2023/05/29 01:12:20;;;;;;;15.10;3.57;;;;;;;10.99;67.66;100509.28;4210689;28;20229;-63
2023/05/29 01:15:05;;;;;;;9.37;2.67;;;;;;;11.02;66.89;100509.00;4208884;28;20438;-64
2023/05/29 01:17:41;;;;;;;4.73;2.30;;;;;;;11.01;67.00;100515.44;4214776;28;20296;-65
2023/05/29 01:20:20;;;;;;;8.17;2.77;;;;;;;10.94;67.13;100514.31;4206460;28;20366;-66
2023/05/29 01:23:05;;;;;;;11.37;3.50;;;;;;;10.95;67.30;100510.59;4212206;28;20586;-64
2023/05/29 01:26:06;;;;;;;6.77;2.53;;;;;;;10.89;67.65;100512.03;4211257;28;20636;-64
2023/05/29 01:28:58;;;;;;;12.00;2.97;;;;;;;10.88;67.91;100504.91;4210238;28;20232;-63
2023/05/29 01:31:26;;;;;;;7.50;2.77;;;;;;;10.85;67.98;100507.94;4211870;28;20317;-65
2023/05/29 01:33:58;;;;;;;8.03;2.63;;;;;;;10.84;68.36;100505.38;4213159;28;20793;-63
2023/05/29 01:36:25;;;;;;;8.13;2.80;;;;;;;10.75;68.46;100502.56;4210744;28;20253;-65
2023/05/29 01:38:52;;;;;;;9.70;3.20;;;;;;;10.77;68.35;100514.06;4208678;28;20236;-65
2023/05/29 01:41:21;;;;;;;8.37;2.83;;;;;;;10.83;68.21;100509.09;4211601;28;20275;-66
2023/05/29 01:43:48;;;;;;;14.73;3.50;;;;;;;10.76;68.34;100509.66;4217986;28;20236;-64
2023/05/29 01:46:16;;;;;;;10.43;3.40;;;;;;;10.69;68.73;100513.09;4212403;28;20389;-63
2023/05/29 01:48:43;;;;;;;8.10;3.03;;;;;;;10.65;68.67;100514.41;4206014;28;20233;-64
2023/05/29 01:51:13;;;;;;;8.67;2.67;;;;;;;10.59;68.82;100510.44;4220179;28;20373;-65
2023/05/29 01:53:41;;;;;;;7.63;3.03;;;;;;;10.52;68.79;100506.59;4221087;28;20233;-65
2023/05/29 01:56:08;;;;;;;7.33;2.60;;;;;;;10.46;69.15;100508.88;4219428;28;21275;-69
2023/05/29 01:58:35;;;;;;;6.17;2.77;;;;;;;10.50;68.91;100514.00;4224522;28;20642;-68
2023/05/29 02:01:03;;;;;;;8.23;3.00;;;;;;;10.43;68.96;100505.59;4205457;28;20238;-70
2023/05/29 02:03:30;;;;;;;7.17;2.80;;;;;;;10.38;69.03;100511.47;4228681;28;20609;-68
2023/05/29 02:05:57;;;;;;;7.90;3.50;;;;;;;10.35;69.61;100502.75;4244984;28;20608;-70
2023/05/29 02:08:24;;;;;;;8.23;2.87;;;;;;;10.35;69.16;100503.59;4225734;28;20291;-68
2023/05/29 02:10:51;;;;;;;8.33;3.33;;;;;;;10.32;69.32;100501.16;4210052;28;20283;-68
2023/05/29 02:13:17;;;;;;;8.07;3.20;;;;;;;10.36;69.40;100491.78;4223732;28;22037;-68
2023/05/29 02:15:44;;;;;;;7.33;2.83;;;;;;;10.35;69.50;100483.81;4217693;28;20291;-69
2023/05/29 02:18:14;;;;;;;7.33;2.60;;;;;;;10.26;69.69;100486.38;4207524;28;20317;-69
2023/05/29 02:20:41;;;;;;;9.93;3.00;;;;;;;10.21;69.98;100488.66;4210358;28;21671;-68
2023/05/29 02:23:10;;;;;;;8.03;2.70;;;;;;;10.15;70.47;100483.81;4219005;28;21099;-70
2023/05/29 02:25:37;;;;;;;6.90;3.23;;;;;;;10.18;70.28;100485.38;4227374;28;22368;-68
2023/05/29 02:28:04;;;;;;;9.03;2.80;;;;;;;10.19;70.31;100490.66;4220253;28;20230;-69
2023/05/29 02:30:30;;;;;;;6.13;2.50;;;;;;;10.23;70.31;100489.38;4246489;28;20235;-69
2023/05/29 02:32:57;;;;;;;8.10;2.57;;;;;;;10.17;70.58;100483.66;4214851;28;20243;-69
2023/05/29 02:35:24;;;;;;;6.53;2.83;;;;;;;10.14;70.92;100484.81;4215081;28;21149;-68
2023/05/29 02:37:51;;;;;;;12.40;3.33;;;;;;;10.05;71.18;100486.53;4212448;28;21061;-69
2023/05/29 02:40:18;;;;;;;7.13;2.83;;;;;;;10.06;70.99;100479.25;4224511;28;20489;-67
2023/05/29 02:42:45;;;;;;;4.13;1.93;;;;;;;10.08;70.99;100483.53;4209713;28;20654;-66
2023/05/29 02:45:12;;;;;;;6.53;2.63;;;;;;;10.08;71.21;100480.81;4221220;28;20252;-69
2023/05/29 02:47:39;;;;;;;7.57;3.13;;;;;;;10.07;71.44;100481.84;4224795;28;20232;-68
2023/05/29 02:50:06;;;;;;;6.57;2.77;;;;;;;10.09;70.84;100473.56;4208882;28;21814;-67
2023/05/29 02:52:32;;;;;;;6.73;2.33;;;;;;;10.11;71.08;100477.00;4231375;28;21150;-67
2023/05/29 02:54:59;;;;;;;5.70;2.60;;;;;;;10.11;71.03;100480.53;4227092;28;20252;-69
2023/05/29 02:57:26;;;;;;;6.07;2.70;;;;;;;10.07;71.32;100468.31;4222995;28;20231;-70
2023/05/29 02:59:52;;;;;;;9.57;2.70;;;;;;;10.09;71.22;100477.13;4242888;28;20294;-68
2023/05/29 03:02:19;;;;;;;7.43;2.07;;;;;;;10.11;71.26;100483.25;4233537;28;20651;-69
2023/05/29 03:04:46;;;;;;;11.70;3.00;;;;;;;10.16;70.96;100482.81;4225353;28;20232;-68
2023/05/29 03:07:13;;;;;;;5.47;2.30;;;;;;;10.14;71.21;100485.69;4217007;28;20239;-68
2023/05/29 03:09:39;;;;;;;6.67;2.70;;;;;;;10.19;71.16;100481.69;4230016;28;20228;-69
2023/05/29 03:12:06;;;;;;;10.43;3.13;;;;;;;10.22;71.35;100474.13;4247795;28;22355;-68
2023/05/29 03:14:35;;;;;;;11.57;3.10;;;;;;;10.29;70.98;100485.25;4225264;28;21802;-67
2023/05/29 03:17:04;;;;;;;5.27;2.07;;;;;;;10.33;71.10;100474.97;4233580;28;22356;-69
2023/05/29 03:19:31;;;;;;;7.37;2.80;;;;;;;10.39;70.97;100482.53;4223641;28;20297;-68
2023/05/29 03:21:58;;;;;;;8.97;2.40;;;;;;;10.49;70.70;100483.38;4217684;28;21076;-68
2023/05/29 03:24:24;;;;;;;7.07;2.60;;;;;;;10.56;70.70;100494.47;4235747;28;20531;-69
2023/05/29 03:26:51;;;;;;;5.63;2.40;;;;;;;10.56;70.73;100487.22;4225620;28;20306;-70
2023/05/29 03:29:17;;;;;;;8.40;2.90;;;;;;;10.56;70.80;100489.94;4236608;28;25149;-68
2023/05/29 03:31:44;;;;;;;5.67;2.87;;;;;;;10.67;70.62;100490.72;4220635;28;20340;-69
2023/05/29 03:34:11;;;;;;;6.20;2.70;;;;;;;10.71;70.54;100492.16;4223413;28;22455;-70
2023/05/29 03:36:38;;;;;;;6.30;2.67;;;;;;;10.74;70.64;100491.84;4222458;28;21807;-70
2023/05/29 03:39:04;;;;;;;7.17;3.10;;;;;;;10.85;70.27;100498.94;4212483;28;20227;-68
2023/05/29 03:41:31;;;;;;;6.70;3.50;;;;;;;10.92;69.94;100498.22;4214208;28;20261;-68
2023/05/29 03:43:58;;;;;;;13.30;3.10;;;;;;;11.04;69.31;100509.72;4224212;28;20295;-68
2023/05/29 03:46:24;;;;;;;9.43;3.37;;;;;;;11.15;68.71;100505.09;4233527;28;21529;-68
2023/05/29 03:48:51;;;;;;;15.90;4.03;;;;;;;11.32;68.08;100498.88;4214026;28;20236;-68
2023/05/29 03:51:18;;;;;;;9.43;3.87;;;;;;;11.48;67.86;100494.66;4235589;28;20234;-69
2023/05/29 03:53:44;;;;;;;10.77;3.33;;;;;;;11.63;67.31;100501.28;4240682;28;20243;-69
2023/05/29 03:56:11;;;;;;;7.63;3.03;;;;;;;11.75;67.23;100504.63;4233353;28;23462;-68
2023/05/29 03:58:38;;;;;;;7.87;3.00;;;;;;;11.84;67.40;100502.84;4221053;28;20239;-69
2023/05/29 04:01:05;;;;;;;9.67;3.20;;;;;;;11.97;67.48;100508.75;4219946;28;20236;-70
2023/05/29 04:03:32;;;;;;;8.67;3.30;;;;;;;12.09;67.58;100503.94;4222565;28;20299;-70
2023/05/29 04:05:59;;;;;;;9.10;3.53;;;;;;;12.22;67.05;100508.16;4212386;28;20927;-69
2023/05/29 04:08:25;;;;;;;10.00;3.47;;;;;;;12.37;66.61;100512.00;4246341;28;22388;-68
2023/05/29 04:10:53;;;;;;;10.73;3.57;;;;;;;12.48;66.15;100509.03;4236697;28;20242;-68
2023/05/29 04:13:20;;;;;;;11.33;4.50;;;;;;;12.57;63.66;100515.41;4212416;28;20315;-69
2023/05/29 04:15:47;;;;;;;14.23;4.00;;;;;;;12.71;63.49;100523.97;4207126;28;20232;-68
2023/05/29 04:18:14;;;;;;;16.27;3.87;;;;;;;12.90;63.54;100522.91;4213831;28;20244;-68
2023/05/29 04:20:41;;;;;;;14.90;3.80;;;;;;;13.06;63.52;100520.28;4244537;28;20563;-69
2023/05/29 04:23:07;;;;;;;5.63;3.10;;;;;;;13.28;62.69;100520.72;4232676;28;20307;-67
2023/05/29 04:25:36;;;;;;;11.33;3.40;;;;;;;13.45;62.52;100521.66;4236038;28;20276;-69
2023/05/29 04:28:03;;;;;;;15.43;4.60;;;;;;;13.64;62.86;100512.38;4228480;28;20587;-70
2023/05/29 04:30:30;;;;;;;12.23;4.70;;;;;;;13.76;63.27;100515.66;4210643;28;20234;-69
2023/05/29 04:32:57;;;;;;;13.23;3.80;;;;;;;13.94;62.88;100519.06;4217789;28;20267;-69
2023/05/29 04:35:24;;;;;;;9.67;3.90;;;;;;;14.09;62.33;100521.13;4228925;28;20305;-68
2023/05/29 04:37:50;;;;;;;11.73;3.50;;;;;;;14.30;60.50;100520.63;4217623;28;20649;-68
2023/05/29 04:40:17;;;;;;;10.63;3.53;;;;;;;14.46;59.37;100514.34;4252107;28;20254;-68
2023/05/29 04:42:46;;;;;;;9.30;4.20;;;;;;;14.63;58.68;100523.34;4199255;28;20410;-70
2023/05/29 04:45:13;;;;;;;10.17;3.60;;;;;;;14.71;58.12;100519.78;4217403;28;20236;-67
2023/05/29 04:47:43;;;;;;;14.83;4.20;;;;;;;14.78;56.14;100517.25;4213665;28;20228;-68
2023/05/29 04:50:14;;;;;;;10.93;3.30;;;;;;;14.54;55.87;100519.78;4233996;28;20547;-68
2023/05/29 04:52:41;;;;;;;15.00;3.93;;;;;;;14.64;56.15;100511.44;4223975;28;21193;-69
2023/05/29 04:55:08;;;;;;;11.43;3.13;;;;;;;14.99;55.54;100512.06;4222003;28;20234;-70
2023/05/29 04:57:35;;;;;;;7.47;2.70;;;;;;;15.09;55.34;100514.59;4224443;28;20334;-71
2023/05/29 05:00:07;;;;;;;9.63;3.20;;;;;;;15.11;55.36;100511.69;4220352;28;20243;-70
2023/05/29 05:02:33;;;;;;;10.37;2.87;;;;;;;15.00;55.13;100511.06;4216590;28;20369;-72
2023/05/29 05:05:00;;;;;;;9.43;2.70;;;;;;;15.23;54.07;100512.16;4219989;28;20238;-67
2023/05/29 05:07:26;;;;;;;8.43;3.13;;;;;;;15.36;54.03;100505.13;4213010;28;20305;-65
2023/05/29 05:09:53;;;;;;;8.57;2.57;;;;;;;15.49;52.46;100506.41;4218733;28;20235;-67
2023/05/29 05:12:20;;;;;;;13.13;2.90;;;;;;;15.16;53.67;100504.69;4235071;28;20292;-67
2023/05/29 05:14:46;;;;;;;12.80;2.80;;;;;;;15.21;52.97;100506.88;4218669;28;22796;-66
2023/05/29 05:17:13;;;;;;;18.40;3.57;;;;;;;15.48;52.21;100507.47;4226687;28;22419;-67
2023/05/29 05:19:40;;;;;;;12.70;3.20;;;;;;;15.63;52.42;100513.88;4222311;28;20227;-74
2023/05/29 05:22:06;;;;;;;12.07;3.03;;;;;;;16.04;51.41;100511.94;4211371;28;20594;-67
2023/05/29 05:24:34;;;;;;;12.23;3.97;;;;;;;16.64;50.04;100513.81;4213496;28;20303;-64
2023/05/29 05:27:01;;;;;;;10.40;2.97;;;;;;;16.99;45.64;100505.13;4227413;28;20239;-68
2023/05/29 05:29:28;;;;;;;9.87;3.07;;;;;;;17.29;45.87;100507.84;4256571;28;20232;-68
2023/05/29 05:31:54;;;;;;;11.00;3.00;;;;;;;18.12;45.58;100498.50;4233857;28;20266;-70
2023/05/29 05:34:21;;;;;;;8.23;2.60;;;;;;;18.89;41.52;100504.19;4229602;28;20366;-67
2023/05/29 05:36:49;;;;;;;9.20;1.77;;;;;;;19.43;37.75;100510.88;4211137;28;20626;-64
2023/05/29 05:39:15;;;;;;;6.27;1.93;;;;;;;19.60;36.85;100516.84;4234837;28;20270;-66
2023/05/29 05:41:42;;;;;;;9.87;2.40;;;;;;;20.27;36.59;100517.06;4235304;28;21449;-70
2023/05/29 05:44:09;;;;;;;14.03;2.70;;;;;;;20.69;36.01;100519.59;4255025;28;20239;-65
2023/05/29 05:46:36;;;;;;;22.47;4.73;;;;;;;21.25;35.67;100506.44;4267203;28;20978;-64
2023/05/29 05:49:02;;;;;;;10.57;2.63;;;;;;;21.79;34.90;100512.56;4211316;28;20231;-67
2023/05/29 05:51:30;;;;;;;9.10;1.80;;;;;;;22.45;34.30;100505.81;4243747;28;20235;-68
2023/05/29 05:53:57;;;;;;;9.60;2.13;;;;;;;23.29;33.65;100509.28;4260038;28;20234;-66
2023/05/29 05:56:23;;;;;;;5.47;1.70;;;;;;;23.38;32.15;100510.66;4234167;28;26215;-66
2023/05/29 05:58:50;;;;;;;10.90;1.97;;;;;;;22.15;33.50;100508.31;4246432;28;20351;-65
2023/05/29 06:01:18;;;;;;;13.00;2.20;;;;;;;22.27;33.60;100511.22;4260396;28;20339;-68
2023/05/29 06:03:45;;;;;;;12.80;2.10;;;;;;;22.48;33.28;100502.59;4250098;28;20239;-67
2023/05/29 06:06:11;;;;;;;7.70;1.73;;;;;;;22.21;33.29;100507.44;4236343;28;20265;-67
2023/05/29 06:08:40;;;;;;;5.75;2.33;;;;;;;23.56;32.02;100504.25;4235650;28;20243;-67
2023/05/29 06:11:07;;;;;;;10.50;1.92;;;;;;;22.88;32.88;100509.69;4278796;28;21804;-66
2023/05/29 06:13:33;;;;;;;9.57;1.93;;;;;;;23.90;30.71;100512.97;4232682;28;26283;-67
2023/05/29 06:16:00;;;;;;;10.90;1.87;;;;;;;25.64;28.83;100509.13;4234269;28;20240;-67
2023/05/29 06:18:27;;;;;;;9.02;1.70;;;;;;;25.40;29.52;100503.66;4241915;28;20229;-68
2023/05/29 06:20:54;;;;;;;8.13;2.10;;;;;;;26.03;28.33;100508.47;4232302;28;20235;-67
2023/05/29 06:23:21;;;;;;;8.47;1.80;;;;;;;24.65;29.97;100502.44;4234435;28;20277;-67
2023/05/29 06:25:48;;;;;;;13.38;2.40;;;;;;;26.49;28.27;100508.50;4223976;28;22797;-67
2023/05/29 06:28:15;;;;;;;8.32;1.70;;;;;;;26.44;27.42;100508.41;4245303;28;21026;-67
2023/05/29 06:30:42;;;;;;;7.78;1.63;;;;;;;26.67;27.00;100512.94;4234960;28;20645;-66
2023/05/29 06:33:11;;;;;;;4.93;1.60;;;;;;;24.40;29.83;100510.97;4227998;28;20267;-66
2023/05/29 06:35:38;;;;;;;2.88;1.40;;;;;;;27.55;25.97;100511.44;4245994;28;20513;-67
2023/05/29 06:38:05;;;;;;;5.50;1.55;;;;;;;27.31;25.81;100509.75;4251265;28;20420;-67
2023/05/29 06:40:32;;;;;;;6.97;1.70;;;;;;;28.59;24.76;100506.69;4241664;28;20233;-67
2023/05/29 06:43:00;;;;;;;7.57;1.60;;;;;;;30.01;21.81;100505.22;4267081;28;21952;-68
2023/05/29 06:45:27;;;;;;;9.02;1.90;;;;;;;26.24;26.30;100498.63;4228693;28;20251;-66
2023/05/29 06:47:55;;;;;;;11.52;1.85;;;;;;;27.61;24.93;100508.47;4243262;28;20246;-68
2023/05/29 06:50:22;;;;;;;7.60;1.75;;;;;;;27.90;25.60;100504.63;4233880;28;20228;-67
2023/05/29 06:52:48;;;;;;;11.80;2.10;;;;;;;28.50;24.01;100501.88;4219882;28;20243;-68
2023/05/29 06:55:15;;;;;;;6.53;1.70;;;;;;;29.53;23.78;100502.53;4224507;28;20267;-67
2023/05/29 06:57:42;;;;;;;9.70;2.08;;;;;;;28.27;25.08;100507.53;4230434;28;20295;-69
2023/05/29 07:00:10;;;;;;;10.27;1.55;;;;;;;26.36;26.52;100502.16;4212751;28;20290;-66
2023/05/29 07:02:37;;;;;;;5.97;1.67;;;;;;;27.80;25.53;100503.41;4213931;28;20228;-67
2023/05/29 07:05:04;;;;;;;6.65;1.90;;;;;;;26.61;26.82;100506.47;4232406;28;20558;-66
2023/05/29 07:07:31;;;;;;;8.82;1.60;;;;;;;26.39;26.26;100504.44;4238896;28;20263;-67
2023/05/29 07:09:58;;;;;;;7.07;2.10;;;;;;;26.98;25.75;100508.72;4205317;28;20529;-66
2023/05/29 07:12:24;;;;;;;4.35;1.50;;;;;;;28.32;24.05;100515.09;4214940;28;21512;-66
2023/05/29 07:14:51;;;;;;;7.82;1.67;;;;;;;28.38;23.94;100513.19;4223383;28;21760;-66
2023/05/29 07:17:17;;;;;;;7.18;1.48;;;;;;;26.31;27.43;100504.03;4223004;28;20418;-70
2023/05/29 07:19:45;;;;;;;8.60;1.95;;;;;;;26.41;26.89;100518.06;4213684;28;20612;-68
2023/05/29 07:22:11;;;;;;;10.48;2.10;;;;;;;27.07;26.09;100520.25;4221856;28;20423;-69
2023/05/29 07:24:38;;;;;;;8.38;1.80;;;;;;;26.95;25.53;100523.13;4242937;28;20246;-66
2023/05/29 07:27:05;;;;;;;4.78;1.35;;;;;;;25.89;26.39;100524.59;4205036;28;20232;-68
2023/05/29 07:29:32;;;;;;;8.52;1.50;;;;;;;27.38;25.26;100522.59;4212312;28;20264;-71
2023/05/29 07:31:58;;;;;;;7.50;1.83;;;;;;;28.06;24.45;100525.97;4228251;28;25128;-65
2023/05/29 07:34:25;;;;;;;4.43;1.65;;;;;;;27.30;25.19;100523.91;4230082;28;20292;-68
2023/05/29 07:36:59;;;;;;;8.40;1.88;;;;;;;26.69;26.89;100519.09;4222489;28;20688;-69
2023/05/29 07:39:26;;;;;;;10.00;1.55;;;;;;;25.24;28.48;100519.09;4225997;28;20334;-68
2023/05/29 07:41:53;;;;;;;9.32;1.85;;;;;;;24.44;30.97;100526.84;4221063;28;20228;-69
2023/05/29 07:44:20;;;;;;;6.35;1.60;;;;;;;25.45;29.24;100520.38;4222581;28;20291;-64
2023/05/29 07:46:46;;;;;;;5.90;1.70;;;;;;;25.50;28.74;100524.34;4213300;28;20762;-66
2023/05/29 07:49:13;;;;;;;6.28;1.73;;;;;;;25.08;28.27;100520.66;4225148;28;20231;-67
2023/05/29 07:51:40;;;;;;;6.15;1.35;;;;;;;25.61;28.05;100521.56;4222796;28;20230;-68
2023/05/29 07:54:07;;;;;;;8.35;1.75;;;;;;;25.30;29.14;100529.19;4211674;28;25776;-67
2023/05/29 07:56:36;;;;;;;10.63;2.90;;;;;;;25.23;28.78;100522.06;4206260;28;20260;-67
2023/05/29 07:59:03;;;;;;;5.80;1.60;;;;;;;24.09;30.29;100527.63;4233927;28;20231;-66
2023/05/29 08:01:30;;;;;;;10.15;1.55;;;;;;;24.99;29.40;100525.72;4220409;28;20244;-70
2023/05/29 08:03:56;;;;;;;7.03;1.57;;;;;;;24.78;28.47;100524.38;4219994;28;20432;-67
2023/05/29 08:06:23;;;;;;;8.27;2.13;;;;;;;24.46;30.65;100521.94;4207568;28;20346;-66
2023/05/29 08:08:51;;;;;;;7.60;2.00;;;;;;;24.61;30.16;100520.63;4224251;28;21000;-66
2023/05/29 08:11:19;;;;;;;7.37;1.47;;;;;;;25.12;28.40;100518.22;4231393;28;20230;-66
2023/05/29 08:13:46;;;;;;;7.35;1.92;;;;;;;24.01;30.02;100522.41;4229532;28;20592;-67
2023/05/29 08:16:14;;;;;;;4.20;1.50;;;;;;;24.01;30.14;100520.47;4237669;28;20290;-67
2023/05/29 08:18:40;;;;;;;10.63;1.70;;;;;;;24.66;29.06;100512.44;4222214;28;20236;-67
2023/05/29 08:21:09;;;;;;;7.40;1.87;;;;;;;25.58;28.69;100512.91;4225132;28;20582;-66
2023/05/29 08:23:35;;;;;;;10.37;2.10;;;;;;;25.39;28.44;100517.75;4221640;28;20246;-67
2023/05/29 08:26:05;;;;;;;9.27;1.65;;;;;;;25.39;28.03;100510.28;4210951;28;20327;-67
2023/05/29 08:28:32;;;;;;;7.00;1.80;;;;;;;24.32;29.47;100517.69;4230452;28;22032;-70
2023/05/29 08:30:58;;;;;;;8.50;1.83;;;;;;;24.52;29.17;100514.59;4232859;28;20293;-69
2023/05/29 08:33:25;;;;;;;7.10;1.87;;;;;;;23.80;30.15;100520.97;4220976;28;20268;-67
2023/05/29 08:35:52;;;;;;;4.90;1.42;;;;;;;24.04;29.32;100517.25;4235583;28;20263;-68
2023/05/29 08:38:20;;;;;;;7.57;2.10;;;;;;;24.04;30.08;100522.78;4222495;28;20790;-66
2023/05/29 08:40:48;;;;;;;11.23;2.28;;;;;;;25.17;28.83;100521.13;4255517;28;20586;-67
2023/05/29 08:43:21;;;;;;;10.57;2.30;;;;;;;24.48;29.41;100516.97;4239600;28;21245;-67
2023/05/29 08:45:53;;;;;;;6.87;1.73;;;;;;;25.09;28.62;100529.81;4241282;28;21746;-67
2023/05/29 08:48:23;;;;;;;9.97;2.17;;;;;;;24.81;27.44;100526.69;4210438;28;20442;-68
2023/05/29 08:50:52;;;;;;;6.10;1.73;;;;;;;24.39;27.97;100531.41;4242206;28;20410;-66
2023/05/29 08:53:19;;;;;;;8.10;2.07;;;;;;;24.59;27.36;100520.03;4238880;28;20242;-66
2023/05/29 08:55:47;;;;;;;8.93;2.50;;;;;;;23.90;29.28;100522.09;4217498;28;23242;-65
2023/05/29 08:58:14;;;;;;;8.23;1.80;;;;;;;24.25;28.89;100509.50;4220859;28;22385;-68
2023/05/29 09:00:41;;;;;;;8.20;2.17;;;;;;;24.72;28.08;100511.50;4229088;28;20285;-67
2023/05/29 09:03:08;;;;;;;13.60;2.87;;;;;;;24.53;28.86;100514.38;4241279;28;21056;-66
2023/05/29 09:05:39;;;;;;;11.97;3.37;;;;;;;24.37;29.93;100513.13;4216025;28;20247;-68
2023/05/29 09:08:11;;;;;;;8.33;2.17;;;;;;;25.00;27.15;100512.72;4232881;28;20326;-70
2023/05/29 09:10:59;;;;;;;14.57;2.10;;;;;;;25.06;27.31;100499.81;4232610;28;20248;-69
2023/05/29 09:13:28;;;;;;;12.73;3.17;;;;;;;24.12;29.21;100504.19;4204485;28;20621;-69
2023/05/29 09:16:02;;;;;;;9.97;1.73;;;;;;;24.00;29.50;100504.97;4224845;28;20595;-69
2023/05/29 09:18:32;;;;;;;8.73;2.13;;;;;;;22.86;31.75;100494.41;4226744;28;20275;-69
2023/05/29 09:20:59;;;;;;;9.77;2.00;;;;;;;23.15;29.78;100500.28;4228872;28;20246;-70
2023/05/29 09:23:28;;;;;;;10.82;2.20;;;;;;;23.16;30.79;100494.50;4215260;28;20263;-67
2023/05/29 09:25:55;;;;;;;7.67;2.03;;;;;;;22.96;30.28;100503.00;4221781;28;20349;-69
2023/05/29 09:28:23;;;;;;;5.97;1.80;;;;;;;23.39;30.92;100498.53;4234157;28;26029;-69
2023/05/29 09:30:50;;;;;;;3.88;1.65;;;;;;;23.57;30.81;100508.72;4226141;28;21200;-69
2023/05/29 09:33:17;;;;;;;10.17;2.03;;;;;;;22.94;30.89;100502.38;4206786;28;20629;-68
2023/05/29 09:35:47;;;;;;;5.33;1.87;;;;;;;22.77;31.17;100507.66;4223293;28;20494;-69
2023/05/29 09:38:16;;;;;;;8.03;2.10;;;;;;;22.94;30.88;100494.09;4252295;28;20330;-68
2023/05/29 09:41:05;;;;;;;6.37;1.90;;;;;;;22.97;30.39;100499.19;4216416;28;20289;-69
2023/05/29 09:43:32;;;;;;;9.73;2.40;;;;;;;22.85;31.15;100489.97;4223014;28;20239;-67
2023/05/29 09:46:00;;;;;;;9.13;1.77;;;;;;;22.91;30.87;100489.88;4233355;28;22194;-68
2023/05/29 09:48:29;;;;;;;8.50;2.10;;;;;;;23.11;31.03;100497.97;4220886;28;20251;-69
2023/05/29 09:50:57;;;;;;;9.63;2.33;;;;;;;23.20;30.67;100492.16;4217583;28;20232;-68
2023/05/29 09:53:26;;;;;;;11.13;2.17;;;;;;;23.87;29.37;100483.84;4227526;28;21782;-69
2023/05/29 09:55:54;;;;;;;5.77;2.03;;;;;;;23.79;30.31;100492.50;4238193;28;21226;-70
2023/05/29 09:58:24;;;;;;;12.37;2.20;;;;;;;23.32;30.10;100484.78;4238601;28;25400;-67
2023/05/29 10:00:52;;;;;;;12.48;1.80;;;;;;;23.52;30.64;100492.84;4222140;28;20242;-69
2023/05/29 10:03:21;;;;;;;11.60;2.43;;;;;;;23.11;30.64;100484.16;4217071;28;20325;-69
2023/05/29 10:05:53;;;;;;;5.57;1.80;;;;;;;22.92;29.70;100494.34;4233312;28;20278;-68
2023/05/29 10:08:20;;;;;;;4.93;1.80;;;;;;;22.82;31.21;100487.66;4218670;28;22401;-67
2023/05/29 10:10:54;;;;;;;8.27;2.20;;;;;;;22.17;31.01;100475.88;4246124;28;20581;-69
2023/05/29 10:13:24;;;;;;;15.23;3.20;;;;;;;22.07;31.76;100470.84;4202682;28;21130;-69
2023/05/29 10:15:52;;;;;;;5.93;2.10;;;;;;;22.36;32.31;100479.53;4217489;28;22804;-68
2023/05/29 10:18:22;;;;;;;10.27;2.00;;;;;;;22.51;31.70;100475.63;4236073;28;21670;-67
2023/05/29 10:20:53;;;;;;;6.93;1.90;;;;;;;22.73;30.84;100473.31;4222767;28;20244;-68
2023/05/29 10:23:24;;;;;;;11.67;2.40;;;;;;;23.04;30.89;100477.00;4201800;28;20243;-67
2023/05/29 10:25:59;;;;;;;9.77;2.30;;;;;;;23.14;30.17;100465.44;4220947;28;20983;-67
2023/05/29 10:28:26;;;;;;;15.50;2.70;;;;;;;23.41;30.63;100482.56;4227502;28;20245;-69
2023/05/29 10:30:55;;;;;;;9.63;2.13;;;;;;;22.83;30.02;100473.63;4231274;28;20243;-67
2023/05/29 10:33:37;;;;;;;6.47;2.15;;;;;;;23.14;30.85;100476.50;4225634;28;20239;-67
2023/05/29 10:36:10;;;;;;;8.43;2.10;;;;;;;22.34;31.13;100481.66;4230794;28;22899;-68
2023/05/29 10:38:37;;;;;;;14.03;2.17;;;;;;;22.78;31.49;100476.22;4250559;28;20659;-68
2023/05/29 10:41:26;;;;;;;6.17;2.00;;;;;;;22.69;30.43;100475.69;4220708;28;20287;-69
2023/05/29 10:43:57;;;;;;;8.77;2.10;;;;;;;23.02;30.50;100481.94;4256692;28;20229;-67
2023/05/29 10:46:42;;;;;;;4.90;2.07;;;;;;;22.97;30.70;100476.22;4270668;28;21086;-69
2023/05/29 10:49:19;;;;;;;5.40;2.13;;;;;;;23.12;30.66;100465.66;4233397;28;20318;-68
2023/05/29 10:51:46;;;;;;;6.77;1.40;;;;;;;23.17;31.16;100465.88;4213602;28;20234;-68
2023/05/29 10:54:13;;;;;;;12.27;2.13;;;;;;;22.90;31.41;100471.63;4213051;28;20263;-68
2023/05/29 10:56:43;;;;;;;6.77;1.80;;;;;;;23.45;32.49;100469.16;4246103;28;20878;-69
2023/05/29 10:59:10;;;;;;;9.73;1.70;;;;;;;23.20;31.84;100467.31;4250815;28;20231;-69
2023/05/29 11:01:38;;;;;;;7.43;2.00;;;;;;;23.58;32.18;100463.44;4216374;28;20236;-69
2023/05/29 11:04:17;;;;;;;6.23;2.10;;;;;;;23.52;30.93;100454.16;4231738;28;20286;-68
2023/05/29 11:06:44;;;;;;;6.80;1.80;;;;;;;22.82;33.09;100455.38;4265126;28;20805;-68
2023/05/29 11:09:37;;;;;;;10.97;2.23;;;;;;;23.55;30.90;100450.94;4238882;28;20233;-65
2023/05/29 11:12:33;;;;;;;6.77;1.80;;;;;;;23.95;30.23;100451.44;4220338;28;20448;-67
2023/05/29 11:15:12;;;;;;;5.70;1.83;;;;;;;23.45;30.79;100450.63;4232180;28;20526;-66
2023/05/29 11:17:38;;;;;;;6.20;1.60;;;;;;;23.68;32.11;100449.88;4250511;28;20234;-65
2023/05/29 11:20:16;;;;;;;8.38;1.75;;;;;;;23.85;31.27;100455.63;4237033;28;20606;-66
2023/05/29 11:23:00;;;;;;;6.60;2.03;;;;;;;23.56;30.58;100454.53;4225056;28;20275;-66
2023/05/29 11:25:27;;;;;;;7.17;1.70;;;;;;;23.96;29.46;100447.59;4230689;28;22186;-66
2023/05/29 11:27:54;;;;;;;7.90;1.83;;;;;;;23.83;30.18;100443.13;4216213;28;20232;-64